Time;durP1;ratioP1;P1;durP2;ratioP2;P2;SDS_P1;SDS_P2;PMS_P1;PMS_P2;Temp;Humidity;BMP_temperature;BMP_pressure;BME280_temperature;BME280_humidity;BME280_pressure;Samples;Min_cycle;Max_cycle;Signal;HPM_P1;HPM_P2
2022/04/22 00:01:13;;;;;;;17.15;8.60;;;;;;;;;;4779457;30;20043;-58
2022/04/22 00:03:39;;;;;;;16.40;8.73;;;10.80;99.90;;;;;;4779984;30;20052;-58
2022/04/22 00:06:05;;;;;;;17.85;9.20;;;11.00;99.90;;;;;;4780026;30;20093;-57
2022/04/22 00:08:31;;;;;;;15.55;8.98;;;11.30;99.90;;;;;;4779826;30;20044;-58
2022/04/22 00:13:42;;;;;;;20.52;9.43;;;10.90;99.90;;;;;;4779884;30;20118;-58
2022/04/22 00:16:07;;;;;;;13.60;8.75;;;10.80;99.90;;;;;;4779500;30;20114;-58
2022/04/22 00:18:33;;;;;;;12.40;8.98;;;10.90;99.90;;;;;;4779803;30;20051;-58
2022/04/22 00:20:59;;;;;;;15.77;9.52;;;10.80;99.90;;;;;;4779880;30;20109;-58
2022/04/22 00:23:27;;;;;;;17.23;9.60;;;;;;;;;;4778727;30;20051;-58
2022/04/22 00:25:54;;;;;;;16.10;9.50;;;10.80;99.90;;;;;;4780579;30;20170;-58
2022/04/22 00:28:20;;;;;;;16.42;9.35;;;10.80;99.90;;;;;;4783077;30;20111;-58
2022/04/22 00:30:47;;;;;;;18.17;9.68;;;10.80;99.90;;;;;;4783246;30;20047;-58
2022/04/22 00:33:13;;;;;;;14.82;9.93;;;10.90;99.90;;;;;;4782768;30;20043;-58
2022/04/22 00:35:39;;;;;;;15.32;9.77;;;10.70;99.90;;;;;;4783426;30;20103;-59
2022/04/22 00:38:05;;;;;;;15.88;10.20;;;10.70;99.90;;;;;;4782150;30;20047;-58
2022/04/22 00:40:31;;;;;;;23.50;10.02;;;10.70;99.90;;;;;;4782929;30;20332;-58
2022/04/22 00:42:56;;;;;;;17.65;10.07;;;10.60;99.90;;;;;;4767142;30;20101;-58
2022/04/22 00:45:22;;;;;;;17.30;10.43;;;10.60;99.90;;;;;;4782731;30;20052;-58
2022/04/22 00:47:48;;;;;;;18.80;10.07;;;;;;;;;;4783030;30;20114;-58
2022/04/22 00:50:14;;;;;;;20.30;10.73;;;10.60;99.90;;;;;;4767017;30;20305;-58
2022/04/22 00:52:40;;;;;;;17.40;10.38;;;10.50;99.90;;;;;;4766571;30;20074;-58
2022/04/22 00:55:08;;;;;;;17.73;10.95;;;10.20;99.90;;;;;;4782940;30;20055;-57
2022/04/22 00:57:33;;;;;;;27.30;10.55;;;10.40;99.90;;;;;;4782851;30;20075;-58
2022/04/22 01:00:00;;;;;;;21.45;10.50;;;10.30;99.90;;;;;;4782034;30;20313;-57
2022/04/22 01:02:25;;;;;;;22.92;11.23;;;10.30;99.90;;;;;;4771756;30;20043;-57
2022/04/22 01:10:20;;;;;;;18.67;11.13;;;10.10;99.90;;;;;;4764724;30;20055;-58
2022/04/22 01:12:46;;;;;;;19.08;11.25;;;10.10;99.90;;;;;;4764685;30;20056;-58
2022/04/22 01:15:12;;;;;;;26.67;12.50;;;;;;;;;;4748526;30;20281;-57
2022/04/22 01:17:39;;;;;;;26.88;11.82;;;;;;;;;;4767733;30;20111;-58
2022/04/22 01:20:05;;;;;;;21.75;11.77;;;10.00;99.90;;;;;;4782437;30;20052;-58
2022/04/22 01:22:31;;;;;;;25.10;12.98;;;10.50;99.90;;;;;;4782476;30;20044;-57
2022/04/22 01:25:02;;;;;;;20.52;12.18;;;9.80;99.90;;;;;;4782430;30;20106;-57
2022/04/22 01:27:31;;;;;;;24.48;12.68;;;9.30;99.90;;;;;;4781965;30;20044;-57
2022/04/22 01:30:06;;;;;;;20.73;12.05;;;9.30;99.90;;;;;;4782120;30;20044;-57
2022/04/22 01:32:32;;;;;;;21.45;12.43;;;9.50;99.90;;;;;;4782261;30;20051;-57
2022/04/22 01:34:57;;;;;;;24.17;12.88;;;9.50;99.90;;;;;;4761132;30;20052;-57
2022/04/22 01:37:23;;;;;;;22.20;13.65;;;9.80;99.90;;;;;;4763779;30;20071;-57
2022/04/22 01:39:49;;;;;;;29.95;14.52;;;10.10;99.90;;;;;;4748366;30;20360;-57
2022/04/22 01:42:15;;;;;;;23.58;14.50;;;9.80;99.90;;;;;;4764036;30;20346;-57
2022/04/22 01:44:41;;;;;;;22.67;14.10;;;9.50;99.90;;;;;;4764418;30;20051;-57
2022/04/22 01:47:07;;;;;;;24.70;14.82;;;;;;;;;;4763896;30;20052;-57
2022/04/22 01:49:33;;;;;;;26.75;15.25;;;9.10;99.90;;;;;;4764526;30;20044;-57
2022/04/22 01:51:58;;;;;;;22.60;15.10;;;9.40;99.90;;;;;;4764082;30;20123;-57
2022/04/22 01:54:24;;;;;;;26.23;15.52;;;9.00;99.90;;;;;;4764048;30;20047;-57
2022/04/22 01:56:50;;;;;;;26.00;15.23;;;9.20;99.90;;;;;;4763632;30;20234;-57
2022/04/22 01:59:16;;;;;;;26.65;15.23;;;;;;;;;;4764099;30;20275;-57
2022/04/22 02:01:42;;;;;;;26.67;15.40;;;9.10;99.90;;;;;;4763868;30;20088;-57
2022/04/22 02:04:07;;;;;;;25.30;15.20;;;9.10;99.90;;;;;;4748476;30;20124;-57
2022/04/22 02:06:33;;;;;;;26.55;15.90;;;8.80;99.90;;;;;;4763701;30;20067;-57
2022/04/22 02:08:59;;;;;;;28.98;16.05;;;9.00;99.90;;;;;;4768149;30;20047;-57
2022/04/22 02:11:25;;;;;;;31.75;15.38;;;;;;;;;;4781095;30;20060;-57
2022/04/22 02:13:50;;;;;;;27.80;15.82;;;8.70;99.90;;;;;;4781530;30;20128;-57
2022/04/22 02:16:16;;;;;;;28.05;15.60;;;9.20;99.90;;;;;;4781198;30;20330;-58
2022/04/22 02:18:42;;;;;;;29.65;14.65;;;8.90;99.90;;;;;;4781378;30;20318;-58
2022/04/22 02:21:09;;;;;;;25.80;14.30;;;9.10;99.90;;;;;;4781637;30;20052;-58
2022/04/22 02:23:36;;;;;;;24.88;14.95;;;8.70;99.90;;;;;;4781537;30;20055;-58
2022/04/22 02:26:04;;;;;;;24.65;14.77;;;9.80;99.90;;;;;;4765303;30;20069;-58
2022/04/22 02:28:33;;;;;;;25.48;13.98;;;9.00;99.90;;;;;;4780962;30;20055;-58
2022/04/22 02:31:06;;;;;;;29.70;14.95;;;9.20;99.90;;;;;;4765015;30;20132;-57
2022/04/22 02:33:33;;;;;;;25.92;14.45;;;8.80;99.90;;;;;;4765606;30;20109;-58
2022/04/22 02:35:59;;;;;;;23.90;14.98;;;8.30;99.90;;;;;;4781517;30;20049;-58
2022/04/22 02:38:27;;;;;;;30.23;15.40;;;9.00;99.90;;;;;;4780925;30;20082;-58
2022/04/22 02:46:21;;;;;;;27.02;14.60;;;9.00;99.90;;;;;;4780714;30;20398;-58
2022/04/22 02:48:48;;;;;;;23.65;14.40;;;8.50;99.90;;;;;;4781152;30;20048;-57
2022/04/22 02:51:13;;;;;;;25.55;14.35;;;8.90;99.90;;;;;;4780677;30;20051;-58
2022/04/22 02:53:39;;;;;;;26.00;14.68;;;8.80;99.90;;;;;;4780971;30;20048;-57
2022/04/22 02:56:06;;;;;;;26.48;14.45;;;8.30;99.90;;;;;;4780872;30;20309;-57
2022/04/22 02:58:34;;;;;;;26.25;13.98;;;8.60;99.90;;;;;;4764887;30;20317;-57
2022/04/22 03:00:59;;;;;;;29.50;14.65;;;8.70;99.90;;;;;;4780646;30;20048;-57
2022/04/22 03:03:25;;;;;;;20.38;13.95;;;8.70;99.90;;;;;;4780493;30;20097;-57
2022/04/22 03:05:52;;;;;;;24.13;14.00;;;8.60;99.90;;;;;;4780993;30;20048;-57
2022/04/22 03:08:17;;;;;;;26.88;14.13;;;9.00;99.90;;;;;;4780157;30;20051;-57
2022/04/22 03:10:43;;;;;;;22.42;14.02;;;8.70;99.90;;;;;;4780587;30;20060;-58
2022/04/22 03:13:09;;;;;;;25.05;14.20;;;8.60;99.90;;;;;;4780295;30;20056;-57
2022/04/22 03:15:36;;;;;;;26.08;14.77;;;8.70;99.90;;;;;;4780782;30;20048;-57
2022/04/22 03:18:02;;;;;;;24.55;14.25;;;8.20;99.90;;;;;;4780556;30;20043;-57
2022/04/22 03:20:28;;;;;;;27.42;14.07;;;8.40;99.90;;;;;;4764463;30;20061;-57
2022/04/22 03:22:54;;;;;;;29.15;14.52;;;8.60;99.90;;;;;;4780410;30;20043;-57
2022/04/22 03:25:20;;;;;;;25.85;14.18;;;8.90;99.90;;;;;;4780115;30;20086;-57
2022/04/22 03:27:46;;;;;;;30.98;14.00;;;8.20;99.90;;;;;;4780514;30;20044;-57
2022/04/22 03:30:13;;;;;;;23.92;13.75;;;8.90;99.90;;;;;;4780071;30;20059;-57
2022/04/22 03:32:38;;;;;;;26.55;13.88;;;8.40;99.90;;;;;;4780663;30;20217;-57
2022/04/22 03:35:05;;;;;;;29.60;13.65;;;8.40;99.90;;;;;;4780401;30;20050;-57
2022/04/22 03:37:31;;;;;;;26.65;13.73;;;8.00;99.90;;;;;;4764001;30;20050;-57
2022/04/22 03:39:57;;;;;;;23.90;13.30;;;8.30;99.90;;;;;;4780156;30;20044;-57
2022/04/22 03:42:23;;;;;;;29.90;13.80;;;;;;;;;;4780098;30;20040;-57
2022/04/22 03:44:49;;;;;;;26.73;12.88;;;8.00;99.90;;;;;;4780194;30;20052;-57
2022/04/22 03:47:14;;;;;;;24.02;12.93;;;7.90;99.90;;;;;;4780049;30;20074;-57
2022/04/22 03:49:41;;;;;;;25.45;12.70;;;;;;;;;;4780022;30;20043;-57
2022/04/22 03:52:07;;;;;;;22.38;12.80;;;;;;;;;;4764096;30;20083;-57
2022/04/22 03:54:32;;;;;;;19.58;12.25;;;7.80;99.90;;;;;;4779925;30;20043;-57
2022/04/22 03:59:43;;;;;;;20.67;11.63;;;;;;;;;;4780311;30;20105;-57
2022/04/22 04:02:08;;;;;;;21.90;11.77;;;8.10;99.90;;;;;;4781903;30;20055;-58
2022/04/22 04:04:34;;;;;;;20.30;10.80;;;7.90;99.90;;;;;;4783892;30;20353;-57
2022/04/22 04:07:00;;;;;;;18.52;10.45;;;;;;;;;;4783941;30;20222;-57
2022/04/22 04:17:39;;;;;;;19.65;9.40;;;7.80;99.90;;;;;;4783806;30;20047;-57
2022/04/22 04:25:34;;;;;;;14.88;8.85;;;8.20;99.90;;;;;;4783082;30;20219;-57
2022/04/22 04:28:00;;;;;;;15.25;8.98;;;7.90;99.90;;;;;;4783573;30;20075;-57
2022/04/22 04:30:25;;;;;;;12.15;8.15;;;8.10;99.90;;;;;;4783030;30;20078;-57
2022/04/22 04:32:51;;;;;;;16.80;8.70;;;8.50;99.90;;;;;;4783341;30;20059;-57
2022/04/22 04:35:17;;;;;;;18.48;8.65;;;7.70;99.90;;;;;;4782912;30;20114;-57
2022/04/22 04:37:43;;;;;;;17.80;8.10;;;8.50;99.90;;;;;;4782883;30;20043;-57
2022/04/22 04:40:11;;;;;;;12.80;8.00;;;8.20;99.90;;;;;;4781686;30;20321;-57
2022/04/22 04:42:37;;;;;;;14.55;7.93;;;8.10;99.90;;;;;;4783195;30;20106;-57
2022/04/22 04:45:06;;;;;;;13.27;7.63;;;8.10;99.90;;;;;;4783120;30;20052;-57
2022/04/22 04:47:41;;;;;;;12.35;7.47;;;8.40;99.90;;;;;;4782979;30;20109;-57
2022/04/22 04:50:08;;;;;;;10.80;7.30;;;8.20;99.90;;;;;;4782907;30;20054;-57
2022/04/22 04:52:34;;;;;;;13.35;7.63;;;8.00;99.90;;;;;;4782778;30;20052;-57
2022/04/22 04:55:00;;;;;;;15.48;7.55;;;8.00;99.90;;;;;;4782929;30;20254;-57
2022/04/22 04:57:26;;;;;;;14.25;7.88;;;8.00;99.90;;;;;;4782749;30;20302;-57
2022/04/22 04:59:52;;;;;;;14.50;7.05;;;7.90;99.90;;;;;;4782901;30;20044;-57
2022/04/22 05:02:17;;;;;;;14.10;7.13;;;7.80;99.90;;;;;;4782281;30;20047;-57
2022/04/22 05:04:43;;;;;;;14.25;7.50;;;8.20;99.90;;;;;;4782787;30;20043;-57
2022/04/22 05:07:09;;;;;;;13.45;7.45;;;7.70;99.90;;;;;;4781907;30;20055;-57
2022/04/22 05:09:34;;;;;;;15.00;8.07;;;8.10;99.90;;;;;;4782939;30;20043;-57
2022/04/22 05:12:00;;;;;;;14.27;7.38;;;7.90;99.90;;;;;;4782088;30;20048;-57
2022/04/22 05:14:26;;;;;;;15.15;7.20;;;8.20;99.90;;;;;;4781555;30;20060;-57
2022/04/22 05:16:54;;;;;;;12.35;6.88;;;8.50;99.90;;;;;;4766314;30;20206;-57
2022/04/22 05:19:21;;;;;;;12.48;6.82;;;8.80;99.90;;;;;;4782290;30;20043;-57
2022/04/22 05:21:48;;;;;;;13.23;7.18;;;;;;;;;;4766096;30;20050;-57
2022/04/22 05:24:14;;;;;;;11.10;6.78;;;10.30;99.90;;;;;;4782269;30;20264;-58
2022/04/22 05:26:39;;;;;;;13.50;6.40;;;10.60;99.90;;;;;;4782414;30;20115;-57
2022/04/22 05:32:36;;;;;;;9.60;6.25;;;;;;;;;;4766738;30;20047;-57
2022/04/22 05:34:35;;;;;;;10.25;5.80;;;12.20;99.90;;;;;;4782186;30;20222;-57
2022/04/22 05:37:01;;;;;;;9.55;5.80;;;;;;;;;;4782104;30;20047;-58
2022/04/22 05:39:27;;;;;;;12.98;5.70;;;12.40;99.90;;;;;;4781908;30;20062;-57
2022/04/22 05:41:52;;;;;;;11.48;5.63;;;13.10;99.90;;;;;;4782025;30;20051;-58
2022/04/22 05:44:18;;;;;;;10.25;5.68;;;12.80;99.90;;;;;;4765932;30;20072;-57
2022/04/22 05:46:44;;;;;;;14.13;5.50;;;13.20;99.90;;;;;;4781354;30;20333;-58
2022/04/22 05:49:10;;;;;;;7.80;4.82;;;13.20;99.90;;;;;;4781790;30;20040;-58
2022/04/22 05:51:35;;;;;;;8.00;5.18;;;13.90;99.90;;;;;;4781821;30;20094;-58
2022/04/22 05:54:01;;;;;;;11.30;5.30;;;;;;;;;;4782085;30;20052;-58
2022/04/22 05:56:29;;;;;;;15.48;5.38;;;13.50;99.90;;;;;;4781559;30;20055;-58
2022/04/22 05:58:55;;;;;;;13.30;5.20;;;13.80;99.90;;;;;;4781733;30;20043;-58
2022/04/22 06:01:22;;;;;;;9.38;4.88;;;14.20;99.90;;;;;;4781442;30;20116;-58
2022/04/22 06:03:48;;;;;;;15.05;5.28;;;14.40;99.90;;;;;;4781600;30;20054;-58
2022/04/22 06:06:14;;;;;;;9.90;5.18;;;14.00;93.40;;;;;;4781394;30;20329;-58
2022/04/22 06:11:24;;;;;;;9.88;5.10;;;14.10;99.30;;;;;;4781303;30;20279;-58
2022/04/22 06:13:49;;;;;;;11.38;5.47;;;14.30;98.60;;;;;;4781114;30;20059;-58
2022/04/22 06:16:15;;;;;;;14.23;5.47;;;14.80;96.80;;;;;;4781522;30;20059;-58
2022/04/22 06:18:41;;;;;;;12.70;5.45;;;15.00;95.40;;;;;;4781408;30;20233;-58
2022/04/22 06:21:07;;;;;;;8.18;5.03;;;;;;;;;;4781446;30;20301;-58
2022/04/22 06:23:34;;;;;;;12.45;4.90;;;14.40;92.90;;;;;;4780845;30;20043;-58
2022/04/22 06:26:00;;;;;;;7.35;4.72;;;14.90;87.50;;;;;;4781221;30;20074;-61
2022/04/22 06:28:26;;;;;;;9.77;4.78;;;15.50;90.80;;;;;;4780948;30;20131;-58
2022/04/22 06:30:52;;;;;;;7.60;4.65;;;15.70;90.70;;;;;;4781307;30;20071;-58
2022/04/22 06:33:18;;;;;;;9.43;5.00;;;;;;;;;;4779337;30;20210;-58
2022/04/22 06:35:44;;;;;;;12.68;5.05;;;16.20;89.00;;;;;;4781561;30;20048;-58
2022/04/22 06:38:15;;;;;;;11.00;5.20;;;16.20;67.70;;;;;;4781328;30;20044;-58
2022/04/22 06:46:10;;;;;;;8.13;4.82;;;16.60;81.60;;;;;;4781007;30;20051;-58
2022/04/22 06:48:36;;;;;;;8.75;4.70;;;;;;;;;;4780624;30;20056;-58
2022/04/22 06:51:06;;;;;;;11.43;4.88;;;17.20;82.10;;;;;;4765178;30;20106;-58
2022/04/22 06:53:33;;;;;;;11.15;5.00;;;17.30;78.80;;;;;;4780741;30;20051;-58
2022/04/22 06:56:00;;;;;;;13.45;5.00;;;17.20;77.20;;;;;;4780895;30;20046;-58
2022/04/22 06:58:29;;;;;;;9.07;4.90;;;17.40;58.80;;;;;;4778557;30;20043;-58
2022/04/22 07:00:55;;;;;;;9.15;4.88;;;17.60;75.90;;;;;;4779688;30;20298;-58
2022/04/22 07:03:21;;;;;;;6.55;4.68;;;;;;;;;;4779599;30;20047;-58
2022/04/22 07:05:49;;;;;;;8.20;4.88;;;17.40;75.40;;;;;;4776348;30;20043;-58
2022/04/22 07:08:17;;;;;;;8.93;4.88;;;18.30;64.90;;;;;;4779816;30;20050;-58
2022/04/22 07:10:47;;;;;;;14.05;4.95;;;17.60;56.60;;;;;;4779405;30;20063;-58
2022/04/22 07:13:16;;;;;;;9.15;5.50;;;17.70;74.80;;;;;;4763594;30;20056;-58
2022/04/22 07:15:44;;;;;;;12.32;5.18;;;17.30;74.30;;;;;;4779274;30;20237;-58
2022/04/22 07:18:10;;;;;;;9.15;4.97;;;17.80;68.70;;;;;;4762883;30;20040;-58
2022/04/22 07:20:37;;;;;;;10.00;4.88;;;17.80;74.70;;;;;;4779412;30;20051;-60
2022/04/22 07:23:03;;;;;;;8.02;5.05;;;17.40;55.60;;;;;;4779704;30;20059;-60
2022/04/22 07:25:29;;;;;;;11.18;4.97;;;17.60;74.00;;;;;;4763317;30;20036;-60
2022/04/22 07:27:55;;;;;;;10.25;5.20;;;;;;;;;;4779719;30;20047;-60
2022/04/22 07:30:22;;;;;;;10.23;4.90;;;16.90;56.90;;;;;;4778425;30;20052;-60
2022/04/22 07:32:49;;;;;;;13.05;5.47;;;16.90;76.20;;;;;;4772976;30;20106;-60
2022/04/22 07:35:21;;;;;;;14.40;5.00;;;16.30;58.00;;;;;;4744783;30;20075;-60
2022/04/22 07:37:49;;;;;;;12.48;5.13;;;16.60;58.70;;;;;;4761412;30;20110;-60
2022/04/22 07:40:16;;;;;;;7.90;5.45;;;16.80;78.00;;;;;;4745267;30;20399;-60
2022/04/22 07:48:17;;;;;;;15.27;5.15;;;15.70;84.00;;;;;;4762486;30;20426;-59
2022/04/22 07:50:45;;;;;;;11.57;5.13;;;15.20;68.30;;;;;;4762241;30;20137;-60
2022/04/22 07:53:11;;;;;;;10.32;5.15;;;14.80;90.10;;;;;;4762479;30;20060;-60
2022/04/22 07:55:37;;;;;;;11.75;4.82;;;14.10;80.20;;;;;;4779056;30;20055;-60
2022/04/22 07:58:03;;;;;;;13.27;4.80;;;;;;;;;;4763137;30;20108;-58
2022/04/22 08:00:28;;;;;;;11.05;4.68;;;14.50;93.60;;;;;;4778440;30;20051;-61
2022/04/22 08:02:54;;;;;;;7.97;4.38;;;14.20;94.80;;;;;;4775372;30;20047;-60
2022/04/22 08:05:20;;;;;;;9.40;4.60;;;13.80;95.10;;;;;;4778788;30;20043;-60
2022/04/22 08:07:45;;;;;;;16.55;5.00;;;14.20;96.50;;;;;;4779021;30;20039;-60
2022/04/22 08:10:12;;;;;;;10.10;4.60;;;14.20;94.40;;;;;;4778755;30;20089;-60
2022/04/22 08:12:37;;;;;;;9.75;4.50;;;13.40;96.60;;;;;;4777714;30;20055;-60
2022/04/22 08:15:04;;;;;;;11.93;4.45;;;;;;;;;;4779028;30;20368;-60
2022/04/22 08:17:37;;;;;;;11.55;4.32;;;13.60;97.00;;;;;;4777760;30;20055;-60
2022/04/22 08:20:05;;;;;;;9.57;4.65;;;14.30;97.10;;;;;;4773268;30;20221;-59
2022/04/22 08:22:31;;;;;;;9.13;4.22;;;14.20;96.90;;;;;;4778275;30;20067;-60
2022/04/22 08:24:57;;;;;;;9.50;4.95;;;14.00;96.90;;;;;;4779131;30;20048;-60
2022/04/22 08:27:26;;;;;;;9.75;4.10;;;14.20;96.80;;;;;;4747583;30;20190;-58
2022/04/22 08:29:53;;;;;;;9.20;4.20;;;14.20;86.50;;;;;;4778746;30;20333;-58
2022/04/22 08:32:19;;;;;;;9.45;4.13;;;14.00;96.00;;;;;;4777531;30;20329;-58
2022/04/22 08:34:46;;;;;;;7.78;4.20;;;14.50;95.80;;;;;;4778976;30;20052;-58
2022/04/22 08:37:12;;;;;;;9.70;3.70;;;14.80;86.00;;;;;;4762195;30;20050;-58
2022/04/22 08:39:37;;;;;;;7.07;3.90;;;14.80;93.90;;;;;;4779052;30;20044;-59
2022/04/22 08:42:04;;;;;;;7.57;3.70;;;15.00;93.00;;;;;;4778822;30;20047;-59
2022/04/22 08:44:36;;;;;;;7.35;3.63;;;14.40;92.60;;;;;;4777987;30;20036;-59
2022/04/22 08:49:58;;;;;;;7.90;3.55;;;14.30;93.80;;;;;;4768332;30;20283;-58
2022/04/22 08:52:31;;;;;;;8.25;3.60;;;14.60;80.60;;;;;;4781809;30;20054;-59
2022/04/22 08:54:58;;;;;;;5.70;3.42;;;15.30;89.40;;;;;;4781907;30;20047;-58
2022/04/22 08:57:24;;;;;;;8.25;3.67;;;15.20;92.50;;;;;;4781872;30;20252;-59
2022/04/22 08:59:50;;;;;;;9.05;3.60;;;15.40;92.20;;;;;;4781570;30;20098;-58
2022/04/22 09:02:19;;;;;;;10.10;3.85;;;15.00;74.50;;;;;;4779605;30;20060;-58
2022/04/22 09:04:46;;;;;;;11.82;3.47;;;15.20;90.80;;;;;;4780078;30;20048;-58
2022/04/22 09:07:13;;;;;;;9.75;3.70;;;15.40;90.10;;;;;;4764861;30;20112;-58
2022/04/22 09:09:40;;;;;;;9.52;3.50;;;14.60;90.10;;;;;;4781771;30;20055;-58
2022/04/22 09:12:11;;;;;;;12.63;3.60;;;15.00;90.40;;;;;;4781404;30;20260;-58
2022/04/22 09:14:57;;;;;;;5.00;3.70;;;14.80;91.00;;;;;;4777159;30;20056;-58
2022/04/22 09:17:28;;;;;;;7.85;3.42;;;15.40;90.30;;;;;;4780905;30;20111;-58
2022/04/22 09:19:57;;;;;;;8.00;3.50;;;14.90;73.50;;;;;;4776907;30;20052;-58
2022/04/22 09:22:25;;;;;;;6.72;3.22;;;15.20;90.00;;;;;;4765207;30;20126;-58
2022/04/22 09:24:59;;;;;;;10.05;3.42;;;14.70;88.30;;;;;;4781390;30;20107;-58
2022/04/22 09:27:36;;;;;;;13.43;4.00;;;15.00;88.40;;;;;;4780615;30;20043;-58
2022/04/22 09:30:07;;;;;;;10.35;3.65;;;14.80;81.00;;;;;;4781582;30;20051;-58
2022/04/22 09:32:35;;;;;;;8.30;3.80;;;15.30;84.80;;;;;;4765612;30;20052;-58
2022/04/22 09:35:16;;;;;;;6.68;3.30;;;15.50;89.20;;;;;;4781408;30;20098;-58
2022/04/22 09:43:34;;;;;;;7.45;3.15;;;15.60;83.90;;;;;;4780917;30;20101;-58
2022/04/22 09:46:01;;;;;;;7.45;3.40;;;15.60;84.60;;;;;;4781219;30;20043;-58
2022/04/22 09:48:27;;;;;;;8.25;3.60;;;;;;;;;;4779667;30;20059;-58
2022/04/22 09:50:54;;;;;;;8.75;3.70;;;16.60;84.30;;;;;;4780272;30;20051;-59
2022/04/22 09:53:33;;;;;;;6.55;3.60;;;16.10;67.10;;;;;;4780719;30;20082;-59
2022/04/22 09:56:05;;;;;;;11.60;4.00;;;15.80;84.70;;;;;;4780838;30;20214;-59
2022/04/22 09:58:31;;;;;;;6.80;3.60;;;15.90;86.20;;;;;;4764045;30;20105;-59
2022/04/22 10:01:02;;;;;;;6.75;3.35;;;15.90;65.50;;;;;;4780813;30;20071;-59
2022/04/22 10:03:29;;;;;;;6.93;3.53;;;15.80;87.00;;;;;;4780050;30;20178;-59
2022/04/22 10:05:55;;;;;;;13.77;3.83;;;17.30;65.70;;;;;;4780680;30;20284;-58
2022/04/22 10:08:22;;;;;;;10.82;3.75;;;;;;;;;;4780481;30;20051;-58
2022/04/22 10:10:51;;;;;;;10.43;3.60;;;16.30;89.10;;;;;;4776304;30;20106;-59
2022/04/22 10:13:18;;;;;;;11.85;3.83;;;16.10;64.80;;;;;;4779980;30;20059;-60
2022/04/22 10:15:47;;;;;;;5.80;3.72;;;15.90;83.40;;;;;;4780920;30;20111;-60
2022/04/22 10:18:14;;;;;;;6.07;3.80;;;;;;;;;;4779360;30;20112;-60
2022/04/22 10:20:41;;;;;;;6.68;3.70;;;16.30;85.60;;;;;;4780638;30;20067;-59
2022/04/22 10:23:07;;;;;;;8.27;4.00;;;;;;;;;;4780090;30;20048;-59
2022/04/22 10:25:33;;;;;;;8.35;4.20;;;15.90;86.40;;;;;;4780185;30;20047;-59
2022/04/22 10:28:03;;;;;;;8.02;4.20;;;16.20;89.00;;;;;;4779769;30;20050;-59
2022/04/22 10:30:30;;;;;;;8.95;3.97;;;16.00;89.90;;;;;;4780135;30;20059;-60
2022/04/22 10:32:57;;;;;;;6.45;4.00;;;;;;;;;;4779524;30;20056;-59
2022/04/22 10:35:23;;;;;;;6.82;3.92;;;16.20;88.70;;;;;;4780016;30;20286;-59
2022/04/22 10:37:50;;;;;;;7.88;4.30;;;17.00;89.40;;;;;;4779651;30;20051;-59
2022/04/22 10:40:24;;;;;;;6.75;3.70;;;16.40;83.40;;;;;;4779463;30;20089;-59
2022/04/22 10:42:51;;;;;;;8.68;4.00;;;16.20;89.30;;;;;;4780095;30;20268;-59
2022/04/22 10:48:21;;;;;;;8.10;3.90;;;16.50;90.00;;;;;;4779780;30;20043;-59
2022/04/22 10:50:58;;;;;;;9.63;4.30;;;16.60;90.30;;;;;;4779755;30;20111;-59
2022/04/22 10:53:28;;;;;;;11.23;4.13;;;16.80;73.10;;;;;;4779146;30;20354;-59
2022/04/22 10:56:34;;;;;;;11.98;4.30;;;16.50;89.20;;;;;;4763756;30;20058;-59
2022/04/22 10:59:27;;;;;;;8.15;4.25;;;16.60;90.00;;;;;;4763551;30;20046;-59
2022/04/22 11:01:53;;;;;;;9.05;4.10;;;;;;;;;;4773881;30;20044;-59
2022/04/22 11:04:29;;;;;;;13.30;4.68;;;17.40;88.40;;;;;;4779223;30;20345;-59
2022/04/22 11:06:56;;;;;;;9.75;4.35;;;16.70;87.90;;;;;;4780280;30;20048;-59
2022/04/22 11:09:30;;;;;;;8.80;4.22;;;17.10;87.10;;;;;;4780120;30;20106;-59
2022/04/22 11:11:57;;;;;;;19.17;4.90;;;17.00;63.50;;;;;;4780859;30;20051;-59
2022/04/22 11:14:26;;;;;;;12.23;4.47;;;17.80;67.50;;;;;;4780077;30;20283;-59
2022/04/22 11:16:54;;;;;;;8.38;4.40;;;17.10;86.20;;;;;;4779990;30;20052;-59
2022/04/22 11:19:20;;;;;;;14.13;4.57;;;17.70;87.00;;;;;;4780276;30;20039;-59
2022/04/22 11:21:52;;;;;;;11.13;4.20;;;17.00;69.30;;;;;;4780515;30;20211;-59
2022/04/22 11:24:28;;;;;;;11.68;4.60;;;17.30;60.80;;;;;;4779949;30;20106;-59
2022/04/22 11:27:11;;;;;;;11.38;4.65;;;16.90;85.90;;;;;;4780312;30;20047;-59
2022/04/22 11:29:38;;;;;;;14.05;4.80;;;16.90;86.40;;;;;;4780310;30;20048;-59
2022/04/22 11:32:05;;;;;;;7.45;4.65;;;;;;;;;;4778525;30;20048;-60
2022/04/22 11:34:52;;;;;;;9.27;4.40;;;17.50;59.50;;;;;;4778082;30;20047;-60
2022/04/22 11:37:22;;;;;;;7.25;4.45;;;17.50;85.90;;;;;;4779736;30;20039;-60
2022/04/22 11:39:48;;;;;;;14.00;4.13;;;17.70;85.10;;;;;;4764411;30;20056;-59
2022/04/22 11:42:15;;;;;;;10.60;4.30;;;;;;;;;;4779857;30;20074;-60
2022/04/22 11:44:41;;;;;;;13.50;4.47;;;18.10;84.20;;;;;;4780156;30;20059;-60
2022/04/22 11:47:08;;;;;;;7.10;4.47;;;17.80;83.30;;;;;;4779926;30;20046;-60
2022/04/22 11:49:33;;;;;;;16.85;4.90;;;18.50;58.10;;;;;;4780284;30;20048;-60
2022/04/22 11:52:00;;;;;;;14.05;4.90;;;17.80;82.70;;;;;;4763804;30;20094;-60
2022/04/22 11:54:26;;;;;;;10.57;4.68;;;18.10;81.30;;;;;;4763998;30;20083;-60
2022/04/22 11:56:53;;;;;;;10.82;4.45;;;17.80;82.80;;;;;;4780021;30;20311;-60
2022/04/22 11:59:22;;;;;;;11.65;4.80;;;17.60;81.70;;;;;;4779915;30;20237;-59
2022/04/22 12:10:02;;;;;;;16.40;5.20;;;17.40;83.60;;;;;;4780021;30;20075;-60
2022/04/22 12:12:31;;;;;;;10.43;5.00;;;18.20;84.40;;;;;;4779261;30;20352;-60
2022/04/22 12:15:06;;;;;;;14.05;5.13;;;17.60;82.80;;;;;;4779154;30;20052;-59
2022/04/22 12:17:32;;;;;;;11.40;4.83;;;18.30;83.20;;;;;;4779824;30;20101;-59
2022/04/22 12:19:58;;;;;;;13.98;5.63;;;18.10;57.70;;;;;;4779959;30;20341;-59
2022/04/22 12:22:25;;;;;;;12.45;5.20;;;17.90;80.40;;;;;;4780322;30;20047;-59
2022/04/22 12:25:14;;;;;;;13.23;5.30;;;18.10;81.10;;;;;;4783760;30;20052;-59
2022/04/22 12:27:41;;;;;;;8.63;4.95;;;18.40;66.90;;;;;;4783251;30;20105;-59
2022/04/22 12:30:08;;;;;;;9.18;5.43;;;18.60;73.70;;;;;;4783294;30;20047;-59
2022/04/22 12:32:36;;;;;;;10.15;5.30;;;18.70;79.70;;;;;;4783059;30;20083;-59
2022/04/22 12:35:14;;;;;;;10.77;5.63;;;18.50;79.40;;;;;;4782815;30;20044;-59
2022/04/22 12:37:50;;;;;;;9.20;5.35;;;18.70;80.10;;;;;;4767077;30;20055;-60
2022/04/22 12:40:18;;;;;;;11.95;5.70;;;18.50;80.00;;;;;;4782933;30;20047;-60
2022/04/22 12:42:44;;;;;;;8.75;5.65;;;18.40;79.60;;;;;;4767075;30;20047;-59
2022/04/22 12:53:42;;;;;;;23.95;6.15;;;;;;;;;;4782637;30;20101;-59
2022/04/22 12:56:09;;;;;;;25.27;6.30;;;18.90;78.50;;;;;;4782851;30;20265;-58
2022/04/22 12:58:55;;;;;;;33.67;6.78;;;18.90;77.40;;;;;;4782586;30;20048;-59
2022/04/22 13:01:29;;;;;;;20.67;6.47;;;19.00;71.30;;;;;;4782413;30;20118;-59
2022/04/22 13:03:55;;;;;;;13.10;6.35;;;19.40;71.60;;;;;;4782277;30;20052;-59
2022/04/22 13:06:45;;;;;;;14.25;6.05;;;19.40;71.00;;;;;;4782102;30;20051;-59
2022/04/22 13:09:12;;;;;;;20.48;6.10;;;19.60;53.60;;;;;;4782678;30;20052;-59
2022/04/22 13:11:39;;;;;;;18.25;6.30;;;19.30;69.60;;;;;;4782340;30;20340;-59
2022/04/22 13:14:06;;;;;;;9.10;6.43;;;18.90;70.50;;;;;;4782462;30;20107;-59
2022/04/22 13:16:32;;;;;;;17.92;6.82;;;18.70;63.80;;;;;;4782401;30;20280;-58
2022/04/22 13:18:59;;;;;;;11.90;6.25;;;18.80;72.30;;;;;;4782171;30;20075;-59
2022/04/22 13:21:25;;;;;;;18.63;6.63;;;18.50;72.70;;;;;;4782310;30;20048;-60
2022/04/22 13:23:51;;;;;;;12.65;6.47;;;18.40;73.00;;;;;;4782394;30;20381;-59
2022/04/22 13:26:18;;;;;;;20.33;6.43;;;18.70;73.50;;;;;;4766240;30;20072;-59
2022/04/22 13:28:44;;;;;;;13.73;6.28;;;;;;;;;;4751565;30;20090;-59
2022/04/22 13:31:10;;;;;;;12.07;6.53;;;18.80;72.60;;;;;;4781807;30;20052;-59
2022/04/22 13:33:35;;;;;;;16.33;5.78;;;18.80;72.40;;;;;;4781002;30;20110;-59
2022/04/22 13:36:02;;;;;;;16.83;6.32;;;19.20;72.10;;;;;;4766185;30;20047;-59
2022/04/22 13:38:30;;;;;;;13.55;5.93;;;19.30;72.10;;;;;;4765880;30;20191;-59
2022/04/22 13:40:56;;;;;;;21.23;5.78;;;19.10;71.90;;;;;;4781004;30;20060;-60
2022/04/22 13:43:22;;;;;;;20.45;5.68;;;;;;;;;;4780171;30;20375;-60
2022/04/22 13:54:02;;;;;;;15.13;5.97;;;20.10;70.20;;;;;;4781969;30;20044;-60
2022/04/22 13:56:27;;;;;;;22.55;6.10;;;19.70;69.20;;;;;;4781796;30;20062;-60
2022/04/22 13:58:53;;;;;;;12.63;5.65;;;19.90;68.50;;;;;;4782141;30;20086;-60
2022/04/22 14:01:19;;;;;;;13.30;5.60;;;19.60;68.20;;;;;;4780657;30;20101;-60
2022/04/22 14:03:45;;;;;;;10.05;5.57;;;;;;;;;;4781332;30;20157;-60
2022/04/22 14:06:10;;;;;;;17.63;5.55;;;19.00;70.00;;;;;;4780465;30;20291;-60
2022/04/22 14:08:37;;;;;;;14.02;5.65;;;18.50;70.50;;;;;;4780485;30;20048;-60
2022/04/22 14:11:03;;;;;;;12.40;5.72;;;18.60;71.80;;;;;;4781682;30;20063;-60
2022/04/22 14:13:31;;;;;;;8.77;5.47;;;18.30;72.30;;;;;;4781060;30;20086;-60
2022/04/22 14:15:57;;;;;;;17.55;5.72;;;;;;;;;;4781635;30;20043;-60